sensor_id;sensor_type;location;lat;lon;timestamp;P1;durP1;ratioP1;P2;durP2;ratioP2
65545;SDS011;52177;55.968;37.498;2022-09-13T00:00:13;4.53;;;4.13;;
65545;SDS011;52177;55.968;37.498;2022-09-13T00:00:43;5.32;;;4.82;;
65545;SDS011;52177;55.968;37.498;2022-09-13T00:01:14;6.72;;;3.97;;
65545;SDS011;52177;55.968;37.498;2022-09-13T00:01:46;5.75;;;4.47;;
65545;SDS011;52177;55.968;37.498;2022-09-13T00:02:16;5.78;;;4.30;;
65545;SDS011;52177;55.968;37.498;2022-09-13T00:02:46;5.43;;;3.70;;
65545;SDS011;52177;55.968;37.498;2022-09-13T00:03:17;6.40;;;4.13;;
65545;SDS011;52177;55.968;37.498;2022-09-13T00:03:48;5.40;;;3.92;;
65545;SDS011;52177;55.968;37.498;2022-09-13T00:04:18;5.47;;;4.50;;
65545;SDS011;52177;55.968;37.498;2022-09-13T00:04:49;4.90;;;4.40;;
65545;SDS011;52177;55.968;37.498;2022-09-13T00:05:19;4.95;;;3.75;;
65545;SDS011;52177;55.968;37.498;2022-09-13T00:05:50;4.47;;;4.07;;
65545;SDS011;52177;55.968;37.498;2022-09-13T00:06:20;5.72;;;4.45;;
65545;SDS011;52177;55.968;37.498;2022-09-13T00:06:51;5.97;;;4.75;;
65545;SDS011;52177;55.968;37.498;2022-09-13T00:07:21;5.07;;;4.38;;
65545;SDS011;52177;55.968;37.498;2022-09-13T00:07:51;4.90;;;4.38;;
65545;SDS011;52177;55.968;37.498;2022-09-13T00:08:22;4.55;;;4.15;;
65545;SDS011;52177;55.968;37.498;2022-09-13T00:08:52;5.57;;;4.60;;
65545;SDS011;52177;55.968;37.498;2022-09-13T00:09:23;4.63;;;4.03;;
65545;SDS011;52177;55.968;37.498;2022-09-13T00:09:54;4.63;;;3.95;;
65545;SDS011;52177;55.968;37.498;2022-09-13T00:10:24;4.30;;;3.90;;
65545;SDS011;52177;55.968;37.498;2022-09-13T00:10:55;4.32;;;3.92;;
65545;SDS011;52177;55.968;37.498;2022-09-13T00:11:27;4.35;;;3.97;;
65545;SDS011;52177;55.968;37.498;2022-09-13T00:11:58;7.75;;;4.10;;
65545;SDS011;52177;55.968;37.498;2022-09-13T00:12:29;5.78;;;4.47;;
65545;SDS011;52177;55.968;37.498;2022-09-13T00:12:59;5.72;;;4.30;;
65545;SDS011;52177;55.968;37.498;2022-09-13T00:13:30;5.63;;;4.57;;
65545;SDS011;52177;55.968;37.498;2022-09-13T00:14:01;4.53;;;3.83;;
65545;SDS011;52177;55.968;37.498;2022-09-13T00:14:31;4.93;;;4.20;;
65545;SDS011;52177;55.968;37.498;2022-09-13T00:15:02;6.43;;;4.03;;
65545;SDS011;52177;55.968;37.498;2022-09-13T00:15:33;5.72;;;4.05;;
65545;SDS011;52177;55.968;37.498;2022-09-13T00:16:04;4.75;;;4.30;;
65545;SDS011;52177;55.968;37.498;2022-09-13T00:16:41;4.72;;;4.32;;
65545;SDS011;52177;55.968;37.498;2022-09-13T00:17:11;4.60;;;4.20;;
65545;SDS011;52177;55.968;37.498;2022-09-13T00:17:41;4.60;;;4.15;;
65545;SDS011;52177;55.968;37.498;2022-09-13T00:18:12;4.18;;;3.83;;
65545;SDS011;52177;55.968;37.498;2022-09-13T00:18:44;7.07;;;4.47;;
65545;SDS011;52177;55.968;37.498;2022-09-13T00:19:15;5.68;;;4.60;;
65545;SDS011;52177;55.968;37.498;2022-09-13T00:19:45;5.00;;;4.43;;
65545;SDS011;52177;55.968;37.498;2022-09-13T00:20:16;6.30;;;4.57;;
65545;SDS011;52177;55.968;37.498;2022-09-13T00:20:47;6.05;;;4.43;;
65545;SDS011;52177;55.968;37.498;2022-09-13T00:21:18;5.25;;;4.30;;
65545;SDS011;52177;55.968;37.498;2022-09-13T00:21:49;5.95;;;4.20;;
65545;SDS011;52177;55.968;37.498;2022-09-13T00:22:20;4.93;;;4.43;;
65545;SDS011;52177;55.968;37.498;2022-09-13T00:22:50;5.45;;;4.65;;
65545;SDS011;52177;55.968;37.498;2022-09-13T00:23:20;4.70;;;4.28;;
65545;SDS011;52177;55.968;37.498;2022-09-13T00:23:52;4.95;;;4.32;;
65545;SDS011;52177;55.968;37.498;2022-09-13T00:24:23;4.63;;;4.22;;
65545;SDS011;52177;55.968;37.498;2022-09-13T00:24:53;4.90;;;4.40;;
65545;SDS011;52177;55.968;37.498;2022-09-13T00:25:24;4.70;;;4.30;;
65545;SDS011;52177;55.968;37.498;2022-09-13T00:26:01;6.10;;;4.25;;
65545;SDS011;52177;55.968;37.498;2022-09-13T00:26:36;4.70;;;4.30;;
65545;SDS011;52177;55.968;37.498;2022-09-13T00:27:06;5.53;;;4.32;;
65545;SDS011;52177;55.968;37.498;2022-09-13T00:27:36;4.97;;;4.38;;
65545;SDS011;52177;55.968;37.498;2022-09-13T00:28:07;5.00;;;4.50;;
65545;SDS011;52177;55.968;37.498;2022-09-13T00:28:38;5.28;;;4.40;;
65545;SDS011;52177;55.968;37.498;2022-09-13T00:29:08;5.70;;;4.32;;
65545;SDS011;52177;55.968;37.498;2022-09-13T00:29:39;8.73;;;4.57;;
65545;SDS011;52177;55.968;37.498;2022-09-13T00:30:10;4.80;;;4.40;;
65545;SDS011;52177;55.968;37.498;2022-09-13T00:30:41;4.65;;;4.25;;
65545;SDS011;52177;55.968;37.498;2022-09-13T00:31:11;4.45;;;4.05;;
65545;SDS011;52177;55.968;37.498;2022-09-13T00:31:42;5.35;;;4.70;;
65545;SDS011;52177;55.968;37.498;2022-09-13T00:32:12;4.65;;;4.25;;
65545;SDS011;52177;55.968;37.498;2022-09-13T00:32:42;7.32;;;4.20;;
65545;SDS011;52177;55.968;37.498;2022-09-13T00:33:13;7.20;;;4.78;;
65545;SDS011;52177;55.968;37.498;2022-09-13T00:33:43;6.10;;;4.75;;
65545;SDS011;52177;55.968;37.498;2022-09-13T00:34:13;6.55;;;4.63;;
65545;SDS011;52177;55.968;37.498;2022-09-13T00:34:44;5.40;;;4.40;;
65545;SDS011;52177;55.968;37.498;2022-09-13T00:35:14;6.70;;;4.25;;
65545;SDS011;52177;55.968;37.498;2022-09-13T00:35:44;7.78;;;4.57;;
65545;SDS011;52177;55.968;37.498;2022-09-13T00:36:15;4.68;;;4.13;;
65545;SDS011;52177;55.968;37.498;2022-09-13T00:36:45;4.22;;;3.80;;
65545;SDS011;52177;55.968;37.498;2022-09-13T00:37:15;4.43;;;4.07;;
65545;SDS011;52177;55.968;37.498;2022-09-13T00:37:46;6.80;;;4.30;;
65545;SDS011;52177;55.968;37.498;2022-09-13T00:38:16;4.70;;;4.30;;
65545;SDS011;52177;55.968;37.498;2022-09-13T00:38:46;4.35;;;3.95;;
65545;SDS011;52177;55.968;37.498;2022-09-13T00:39:17;5.90;;;4.38;;
65545;SDS011;52177;55.968;37.498;2022-09-13T00:39:47;5.05;;;4.18;;
65545;SDS011;52177;55.968;37.498;2022-09-13T00:40:20;4.45;;;4.05;;
65545;SDS011;52177;55.968;37.498;2022-09-13T00:40:51;4.53;;;4.13;;
65545;SDS011;52177;55.968;37.498;2022-09-13T00:41:21;4.75;;;4.18;;
65545;SDS011;52177;55.968;37.498;2022-09-13T00:41:52;5.70;;;4.43;;
65545;SDS011;52177;55.968;37.498;2022-09-13T00:42:25;4.60;;;4.20;;
65545;SDS011;52177;55.968;37.498;2022-09-13T00:42:57;6.00;;;4.43;;
65545;SDS011;52177;55.968;37.498;2022-09-13T00:43:39;4.93;;;4.43;;
65545;SDS011;52177;55.968;37.498;2022-09-13T00:45:19;4.85;;;4.00;;
65545;SDS011;52177;55.968;37.498;2022-09-13T00:45:49;5.35;;;3.90;;
65545;SDS011;52177;55.968;37.498;2022-09-13T00:47:02;4.97;;;4.10;;
65545;SDS011;52177;55.968;37.498;2022-09-13T00:47:18;5.28;;;4.00;;
65545;SDS011;52177;55.968;37.498;2022-09-13T00:48:01;6.47;;;4.30;;
65545;SDS011;52177;55.968;37.498;2022-09-13T00:48:37;4.95;;;4.53;;
65545;SDS011;52177;55.968;37.498;2022-09-13T00:50:10;4.75;;;4.18;;
65545;SDS011;52177;55.968;37.498;2022-09-13T00:50:52;5.32;;;4.32;;
65545;SDS011;52177;55.968;37.498;2022-09-13T00:51:25;5.22;;;4.57;;
65545;SDS011;52177;55.968;37.498;2022-09-13T00:51:57;6.28;;;4.22;;
65545;SDS011;52177;55.968;37.498;2022-09-13T00:52:31;4.78;;;4.30;;
65545;SDS011;52177;55.968;37.498;2022-09-13T00:53:08;5.93;;;4.47;;
65545;SDS011;52177;55.968;37.498;2022-09-13T00:53:43;4.45;;;4.05;;
65545;SDS011;52177;55.968;37.498;2022-09-13T00:54:18;4.65;;;4.22;;
65545;SDS011;52177;55.968;37.498;2022-09-13T00:54:58;5.05;;;4.28;;
65545;SDS011;52177;55.968;37.498;2022-09-13T00:55:36;4.78;;;4.38;;
65545;SDS011;52177;55.968;37.498;2022-09-13T00:56:12;5.18;;;4.35;;
65545;SDS011;52177;55.968;37.498;2022-09-13T00:57:04;4.65;;;4.10;;
65545;SDS011;52177;55.968;37.498;2022-09-13T00:57:36;4.20;;;3.80;;
65545;SDS011;52177;55.968;37.498;2022-09-13T00:58:09;5.05;;;4.55;;
65545;SDS011;52177;55.968;37.498;2022-09-13T00:58:50;5.72;;;4.35;;
65545;SDS011;52177;55.968;37.498;2022-09-13T00:59:28;5.30;;;4.22;;
65545;SDS011;52177;55.968;37.498;2022-09-13T01:00:08;4.70;;;4.13;;
65545;SDS011;52177;55.968;37.498;2022-09-13T01:00:42;4.65;;;4.25;;
65545;SDS011;52177;55.968;37.498;2022-09-13T01:01:14;4.47;;;4.07;;
65545;SDS011;52177;55.968;37.498;2022-09-13T01:01:48;4.45;;;4.05;;
65545;SDS011;52177;55.968;37.498;2022-09-13T01:02:23;6.03;;;4.32;;
65545;SDS011;52177;55.968;37.498;2022-09-13T01:02:56;3.95;;;3.65;;
65545;SDS011;52177;55.968;37.498;2022-09-13T01:03:30;4.70;;;4.30;;
65545;SDS011;52177;55.968;37.498;2022-09-13T01:04:03;5.95;;;4.60;;
65545;SDS011;52177;55.968;37.498;2022-09-13T01:04:33;4.43;;;4.03;;
65545;SDS011;52177;55.968;37.498;2022-09-13T01:05:06;5.30;;;4.32;;
65545;SDS011;52177;55.968;37.498;2022-09-13T01:05:39;5.47;;;4.20;;
65545;SDS011;52177;55.968;37.498;2022-09-13T01:06:23;5.03;;;4.18;;
65545;SDS011;52177;55.968;37.498;2022-09-13T01:07:00;6.82;;;4.00;;
65545;SDS011;52177;55.968;37.498;2022-09-13T01:07:33;5.28;;;4.13;;
65545;SDS011;52177;55.968;37.498;2022-09-13T01:08:04;6.82;;;4.30;;
65545;SDS011;52177;55.968;37.498;2022-09-13T01:09:17;4.65;;;4.25;;
65545;SDS011;52177;55.968;37.498;2022-09-13T01:09:47;4.60;;;4.03;;
65545;SDS011;52177;55.968;37.498;2022-09-13T01:10:20;4.25;;;3.85;;
65545;SDS011;52177;55.968;37.498;2022-09-13T01:10:52;11.95;;;4.95;;
65545;SDS011;52177;55.968;37.498;2022-09-13T01:12:31;4.72;;;4.25;;
65545;SDS011;52177;55.968;37.498;2022-09-13T01:13:11;5.38;;;4.05;;
65545;SDS011;52177;55.968;37.498;2022-09-13T01:13:46;4.50;;;4.10;;
65545;SDS011;52177;55.968;37.498;2022-09-13T01:14:17;5.60;;;4.30;;
65545;SDS011;52177;55.968;37.498;2022-09-13T01:14:49;5.43;;;4.35;;
65545;SDS011;52177;55.968;37.498;2022-09-13T01:15:21;4.30;;;3.90;;
65545;SDS011;52177;55.968;37.498;2022-09-13T01:15:52;5.50;;;4.60;;
65545;SDS011;52177;55.968;37.498;2022-09-13T01:16:22;4.78;;;4.38;;
65545;SDS011;52177;55.968;37.498;2022-09-13T01:16:53;5.95;;;4.40;;
65545;SDS011;52177;55.968;37.498;2022-09-13T01:17:24;5.57;;;4.40;;
65545;SDS011;52177;55.968;37.498;2022-09-13T01:17:56;4.70;;;4.10;;
65545;SDS011;52177;55.968;37.498;2022-09-13T01:18:27;4.80;;;4.38;;
65545;SDS011;52177;55.968;37.498;2022-09-13T01:18:57;6.90;;;4.57;;
65545;SDS011;52177;55.968;37.498;2022-09-13T01:19:27;4.68;;;4.28;;
65545;SDS011;52177;55.968;37.498;2022-09-13T01:19:58;8.18;;;4.13;;
65545;SDS011;52177;55.968;37.498;2022-09-13T01:20:36;4.53;;;4.05;;
65545;SDS011;52177;55.968;37.498;2022-09-13T01:30:48;6.07;;;3.97;;
65545;SDS011;52177;55.968;37.498;2022-09-13T01:32:14;4.80;;;4.25;;
65545;SDS011;52177;55.968;37.498;2022-09-13T01:34:04;4.70;;;4.22;;
65545;SDS011;52177;55.968;37.498;2022-09-13T01:37:18;4.70;;;4.28;;
65545;SDS011;52177;55.968;37.498;2022-09-13T01:39:02;5.28;;;4.53;;
65545;SDS011;52177;55.968;37.498;2022-09-13T01:39:46;5.10;;;4.50;;
65545;SDS011;52177;55.968;37.498;2022-09-13T01:40:37;5.63;;;4.85;;
65545;SDS011;52177;55.968;37.498;2022-09-13T01:42:38;5.15;;;4.65;;
65545;SDS011;52177;55.968;37.498;2022-09-13T01:46:08;5.72;;;4.68;;
65545;SDS011;52177;55.968;37.498;2022-09-13T01:47:43;5.13;;;4.50;;
65545;SDS011;52177;55.968;37.498;2022-09-13T01:48:26;5.30;;;4.65;;
65545;SDS011;52177;55.968;37.498;2022-09-13T01:50:38;5.22;;;4.78;;
65545;SDS011;52177;55.968;37.498;2022-09-13T01:51:16;4.72;;;4.20;;
65545;SDS011;52177;55.968;37.498;2022-09-13T01:51:57;5.40;;;4.75;;
65545;SDS011;52177;55.968;37.498;2022-09-13T01:52:44;10.93;;;4.80;;
65545;SDS011;52177;55.968;37.498;2022-09-13T01:53:24;4.63;;;3.95;;
65545;SDS011;52177;55.968;37.498;2022-09-13T01:54:11;5.13;;;4.63;;
65545;SDS011;52177;55.968;37.498;2022-09-13T01:55:00;4.90;;;4.32;;
65545;SDS011;52177;55.968;37.498;2022-09-13T01:55:46;7.82;;;4.78;;
65545;SDS011;52177;55.968;37.498;2022-09-13T01:56:27;5.20;;;4.22;;
65545;SDS011;52177;55.968;37.498;2022-09-13T01:57:34;5.18;;;4.40;;
65545;SDS011;52177;55.968;37.498;2022-09-13T01:58:52;5.03;;;4.47;;
65545;SDS011;52177;55.968;37.498;2022-09-13T02:01:57;6.32;;;5.03;;
65545;SDS011;52177;55.968;37.498;2022-09-13T02:03:28;5.05;;;4.63;;
65545;SDS011;52177;55.968;37.498;2022-09-13T02:04:05;4.97;;;4.57;;
65545;SDS011;52177;55.968;37.498;2022-09-13T02:04:41;6.18;;;4.57;;
65545;SDS011;52177;55.968;37.498;2022-09-13T02:05:57;4.78;;;4.38;;
65545;SDS011;52177;55.968;37.498;2022-09-13T02:06:33;5.65;;;4.85;;
65545;SDS011;52177;55.968;37.498;2022-09-13T02:07:09;6.25;;;4.90;;
65545;SDS011;52177;55.968;37.498;2022-09-13T02:07:45;5.13;;;4.60;;
65545;SDS011;52177;55.968;37.498;2022-09-13T02:09:12;4.82;;;4.32;;
65545;SDS011;52177;55.968;37.498;2022-09-13T02:09:48;5.88;;;4.90;;
65545;SDS011;52177;55.968;37.498;2022-09-13T02:10:27;7.43;;;5.03;;
65545;SDS011;52177;55.968;37.498;2022-09-13T02:11:12;6.05;;;5.03;;
65545;SDS011;52177;55.968;37.498;2022-09-13T02:11:46;5.00;;;4.50;;
65545;SDS011;52177;55.968;37.498;2022-09-13T02:12:22;5.45;;;4.95;;
65545;SDS011;52177;55.968;37.498;2022-09-13T02:12:54;5.22;;;4.80;;
65545;SDS011;52177;55.968;37.498;2022-09-13T02:13:27;6.05;;;5.40;;
65545;SDS011;52177;55.968;37.498;2022-09-13T02:14:11;5.00;;;4.60;;
65545;SDS011;52177;55.968;37.498;2022-09-13T02:14:47;6.75;;;4.78;;
65545;SDS011;52177;55.968;37.498;2022-09-13T02:15:26;5.68;;;5.13;;
65545;SDS011;52177;55.968;37.498;2022-09-13T02:16:06;5.57;;;4.63;;
65545;SDS011;52177;55.968;37.498;2022-09-13T02:16:42;5.90;;;4.78;;
65545;SDS011;52177;55.968;37.498;2022-09-13T02:17:20;5.80;;;5.00;;
65545;SDS011;52177;55.968;37.498;2022-09-13T02:17:58;5.72;;;5.20;;
65545;SDS011;52177;55.968;37.498;2022-09-13T02:18:42;10.10;;;5.65;;
65545;SDS011;52177;55.968;37.498;2022-09-13T02:19:23;5.88;;;5.38;;
65545;SDS011;52177;55.968;37.498;2022-09-13T02:19:58;5.75;;;5.25;;
65545;SDS011;52177;55.968;37.498;2022-09-13T02:20:43;6.68;;;5.22;;
65545;SDS011;52177;55.968;37.498;2022-09-13T02:21:18;5.97;;;5.25;;
65545;SDS011;52177;55.968;37.498;2022-09-13T02:21:54;7.13;;;5.68;;
65545;SDS011;52177;55.968;37.498;2022-09-13T02:22:32;8.88;;;5.60;;
65545;SDS011;52177;55.968;37.498;2022-09-13T02:23:08;6.40;;;5.80;;
65545;SDS011;52177;55.968;37.498;2022-09-13T02:24:38;7.28;;;6.30;;
65545;SDS011;52177;55.968;37.498;2022-09-13T02:25:15;7.63;;;6.20;;
65545;SDS011;52177;55.968;37.498;2022-09-13T02:25:47;7.25;;;6.13;;
65545;SDS011;52177;55.968;37.498;2022-09-13T02:26:20;7.85;;;6.53;;
65545;SDS011;52177;55.968;37.498;2022-09-13T02:26:53;10.02;;;6.93;;
65545;SDS011;52177;55.968;37.498;2022-09-13T02:27:25;7.63;;;6.90;;
65545;SDS011;52177;55.968;37.498;2022-09-13T02:28:02;10.18;;;7.05;;
65545;SDS011;52177;55.968;37.498;2022-09-13T02:28:38;10.88;;;7.20;;
65545;SDS011;52177;55.968;37.498;2022-09-13T02:29:14;8.20;;;6.68;;
65545;SDS011;52177;55.968;37.498;2022-09-13T02:29:51;7.63;;;6.85;;
65545;SDS011;52177;55.968;37.498;2022-09-13T02:30:25;11.85;;;8.07;;
65545;SDS011;52177;55.968;37.498;2022-09-13T02:30:58;9.38;;;7.68;;
65545;SDS011;52177;55.968;37.498;2022-09-13T02:31:36;9.95;;;7.90;;
65545;SDS011;52177;55.968;37.498;2022-09-13T02:32:19;12.02;;;8.15;;
65545;SDS011;52177;55.968;37.498;2022-09-13T02:32:56;9.80;;;7.35;;
65545;SDS011;52177;55.968;37.498;2022-09-13T02:33:34;9.88;;;7.80;;
65545;SDS011;52177;55.968;37.498;2022-09-13T02:34:28;9.13;;;7.40;;
65545;SDS011;52177;55.968;37.498;2022-09-13T02:35:05;12.57;;;7.53;;
65545;SDS011;52177;55.968;37.498;2022-09-13T02:35:45;13.85;;;8.20;;
65545;SDS011;52177;55.968;37.498;2022-09-13T02:36:22;11.80;;;8.00;;
65545;SDS011;52177;55.968;37.498;2022-09-13T02:36:55;10.73;;;7.88;;
65545;SDS011;52177;55.968;37.498;2022-09-13T02:37:27;11.35;;;8.88;;
65545;SDS011;52177;55.968;37.498;2022-09-13T02:38:01;10.23;;;8.30;;
65545;SDS011;52177;55.968;37.498;2022-09-13T02:38:51;10.48;;;8.93;;
65545;SDS011;52177;55.968;37.498;2022-09-13T02:39:26;12.98;;;9.45;;
65545;SDS011;52177;55.968;37.498;2022-09-13T02:40:04;15.05;;;10.00;;
65545;SDS011;52177;55.968;37.498;2022-09-13T02:40:42;13.05;;;9.30;;
65545;SDS011;52177;55.968;37.498;2022-09-13T02:42:53;12.40;;;9.18;;
65545;SDS011;52177;55.968;37.498;2022-09-13T02:43:36;13.10;;;9.55;;
65545;SDS011;52177;55.968;37.498;2022-09-13T02:45:48;16.83;;;9.02;;
65545;SDS011;52177;55.968;37.498;2022-09-13T02:48:18;13.25;;;9.15;;
65545;SDS011;52177;55.968;37.498;2022-09-13T02:48:59;11.43;;;8.75;;
65545;SDS011;52177;55.968;37.498;2022-09-13T02:54:04;11.15;;;9.27;;
65545;SDS011;52177;55.968;37.498;2022-09-13T02:56:24;14.75;;;9.60;;
65545;SDS011;52177;55.968;37.498;2022-09-13T02:57:08;12.98;;;9.52;;
65545;SDS011;52177;55.968;37.498;2022-09-13T02:59:04;15.13;;;9.52;;
65545;SDS011;52177;55.968;37.498;2022-09-13T02:59:42;13.35;;;9.13;;
65545;SDS011;52177;55.968;37.498;2022-09-13T03:00:15;12.45;;;9.00;;
65545;SDS011;52177;55.968;37.498;2022-09-13T03:00:46;12.82;;;10.00;;
65545;SDS011;52177;55.968;37.498;2022-09-13T03:01:16;14.73;;;9.93;;
65545;SDS011;52177;55.968;37.498;2022-09-13T03:02:28;15.20;;;10.30;;
65545;SDS011;52177;55.968;37.498;2022-09-13T03:03:02;12.00;;;9.48;;
65545;SDS011;52177;55.968;37.498;2022-09-13T03:03:36;16.25;;;10.32;;
65545;SDS011;52177;55.968;37.498;2022-09-13T03:04:06;11.38;;;9.77;;
65545;SDS011;52177;55.968;37.498;2022-09-13T03:04:36;16.52;;;10.68;;
65545;SDS011;52177;55.968;37.498;2022-09-13T03:05:07;12.18;;;10.02;;
65545;SDS011;52177;55.968;37.498;2022-09-13T03:05:37;11.65;;;9.50;;
65545;SDS011;52177;55.968;37.498;2022-09-13T03:06:08;12.63;;;9.20;;
65545;SDS011;52177;55.968;37.498;2022-09-13T03:06:38;13.73;;;10.00;;
65545;SDS011;52177;55.968;37.498;2022-09-13T03:07:12;12.43;;;10.27;;
65545;SDS011;52177;55.968;37.498;2022-09-13T03:07:43;11.77;;;9.52;;
65545;SDS011;52177;55.968;37.498;2022-09-13T03:08:14;12.45;;;10.00;;
65545;SDS011;52177;55.968;37.498;2022-09-13T03:08:46;14.00;;;9.63;;
65545;SDS011;52177;55.968;37.498;2022-09-13T03:09:17;12.73;;;9.40;;
65545;SDS011;52177;55.968;37.498;2022-09-13T03:09:50;13.82;;;10.13;;
65545;SDS011;52177;55.968;37.498;2022-09-13T03:10:29;11.52;;;9.30;;
65545;SDS011;52177;55.968;37.498;2022-09-13T03:13:33;13.25;;;9.55;;
65545;SDS011;52177;55.968;37.498;2022-09-13T03:18:44;11.75;;;10.02;;
65545;SDS011;52177;55.968;37.498;2022-09-13T03:19:24;11.60;;;9.13;;
65545;SDS011;52177;55.968;37.498;2022-09-13T03:20:02;12.60;;;9.88;;
65545;SDS011;52177;55.968;37.498;2022-09-13T03:21:02;12.43;;;9.52;;
65545;SDS011;52177;55.968;37.498;2022-09-13T03:22:20;12.95;;;9.20;;
65545;SDS011;52177;55.968;37.498;2022-09-13T03:23:17;11.75;;;9.95;;
65545;SDS011;52177;55.968;37.498;2022-09-13T03:25:03;11.57;;;9.05;;
65545;SDS011;52177;55.968;37.498;2022-09-13T03:27:13;10.40;;;8.20;;
65545;SDS011;52177;55.968;37.498;2022-09-13T03:29:05;13.45;;;9.07;;
65545;SDS011;52177;55.968;37.498;2022-09-13T03:29:54;14.02;;;9.18;;
65545;SDS011;52177;55.968;37.498;2022-09-13T03:30:25;11.80;;;9.23;;
65545;SDS011;52177;55.968;37.498;2022-09-13T03:30:57;11.10;;;9.40;;
65545;SDS011;52177;55.968;37.498;2022-09-13T03:32:34;12.05;;;8.77;;
65545;SDS011;52177;55.968;37.498;2022-09-13T03:34:08;10.38;;;8.52;;
65545;SDS011;52177;55.968;37.498;2022-09-13T03:34:30;8.95;;;7.65;;
65545;SDS011;52177;55.968;37.498;2022-09-13T03:36:01;13.23;;;7.80;;
65545;SDS011;52177;55.968;37.498;2022-09-13T03:36:35;10.77;;;8.18;;
65545;SDS011;52177;55.968;37.498;2022-09-13T03:38:12;10.23;;;7.82;;
65545;SDS011;52177;55.968;37.498;2022-09-13T03:38:55;10.25;;;8.07;;
65545;SDS011;52177;55.968;37.498;2022-09-13T03:40:41;8.82;;;8.00;;
65545;SDS011;52177;55.968;37.498;2022-09-13T03:41:20;10.63;;;7.85;;
65545;SDS011;52177;55.968;37.498;2022-09-13T03:41:54;11.73;;;9.10;;
65545;SDS011;52177;55.968;37.498;2022-09-13T03:42:31;11.68;;;8.68;;
65545;SDS011;52177;55.968;37.498;2022-09-13T03:43:52;10.00;;;8.13;;
65545;SDS011;52177;55.968;37.498;2022-09-13T03:44:26;12.98;;;9.38;;
65545;SDS011;52177;55.968;37.498;2022-09-13T03:45:00;11.55;;;9.02;;
65545;SDS011;52177;55.968;37.498;2022-09-13T03:45:35;11.48;;;9.00;;
65545;SDS011;52177;55.968;37.498;2022-09-13T03:46:22;9.70;;;8.77;;
65545;SDS011;52177;55.968;37.498;2022-09-13T03:46:56;11.50;;;8.95;;
65545;SDS011;52177;55.968;37.498;2022-09-13T03:47:30;9.02;;;8.13;;
65545;SDS011;52177;55.968;37.498;2022-09-13T03:48:05;10.23;;;8.85;;
65545;SDS011;52177;55.968;37.498;2022-09-13T03:48:38;11.00;;;9.75;;
65545;SDS011;52177;55.968;37.498;2022-09-13T03:49:12;12.35;;;8.40;;
65545;SDS011;52177;55.968;37.498;2022-09-13T03:49:44;10.52;;;8.80;;
65545;SDS011;52177;55.968;37.498;2022-09-13T03:50:16;12.13;;;9.32;;
65545;SDS011;52177;55.968;37.498;2022-09-13T03:50:52;10.20;;;9.13;;
65545;SDS011;52177;55.968;37.498;2022-09-13T03:51:24;10.35;;;9.30;;
65545;SDS011;52177;55.968;37.498;2022-09-13T03:51:54;10.52;;;9.43;;
65545;SDS011;52177;55.968;37.498;2022-09-13T03:52:26;11.65;;;9.38;;
65545;SDS011;52177;55.968;37.498;2022-09-13T03:52:58;11.30;;;9.95;;
65545;SDS011;52177;55.968;37.498;2022-09-13T03:53:32;11.32;;;10.15;;
65545;SDS011;52177;55.968;37.498;2022-09-13T03:54:08;12.88;;;10.20;;
65545;SDS011;52177;55.968;37.498;2022-09-13T03:54:43;11.75;;;10.27;;
65545;SDS011;52177;55.968;37.498;2022-09-13T03:55:14;13.48;;;10.68;;
65545;SDS011;52177;55.968;37.498;2022-09-13T03:55:48;10.85;;;9.75;;
65545;SDS011;52177;55.968;37.498;2022-09-13T03:56:19;11.63;;;9.95;;
65545;SDS011;52177;55.968;37.498;2022-09-13T03:57:38;11.85;;;10.43;;
65545;SDS011;52177;55.968;37.498;2022-09-13T03:58:13;11.50;;;9.98;;
65545;SDS011;52177;55.968;37.498;2022-09-13T03:58:45;12.02;;;9.90;;
65545;SDS011;52177;55.968;37.498;2022-09-13T03:59:17;11.63;;;10.43;;
65545;SDS011;52177;55.968;37.498;2022-09-13T04:00:19;11.05;;;9.90;;
65545;SDS011;52177;55.968;37.498;2022-09-13T04:00:49;11.25;;;9.48;;
65545;SDS011;52177;55.968;37.498;2022-09-13T04:01:22;10.60;;;9.50;;
65545;SDS011;52177;55.968;37.498;2022-09-13T04:01:53;11.35;;;10.13;;
65545;SDS011;52177;55.968;37.498;2022-09-13T04:02:24;10.73;;;9.73;;
65545;SDS011;52177;55.968;37.498;2022-09-13T04:02:55;11.48;;;10.07;;
65545;SDS011;52177;55.968;37.498;2022-09-13T04:03:25;10.35;;;9.25;;
65545;SDS011;52177;55.968;37.498;2022-09-13T04:03:56;11.50;;;8.75;;
65545;SDS011;52177;55.968;37.498;2022-09-13T04:04:26;9.98;;;8.98;;
65545;SDS011;52177;55.968;37.498;2022-09-13T04:04:57;9.07;;;8.05;;
65545;SDS011;52177;55.968;37.498;2022-09-13T04:05:27;9.98;;;8.32;;
65545;SDS011;52177;55.968;37.498;2022-09-13T04:05:57;9.57;;;8.13;;
65545;SDS011;52177;55.968;37.498;2022-09-13T04:06:27;9.02;;;8.10;;
65545;SDS011;52177;55.968;37.498;2022-09-13T04:06:58;10.45;;;7.90;;
65545;SDS011;52177;55.968;37.498;2022-09-13T04:07:32;11.02;;;7.97;;
65545;SDS011;52177;55.968;37.498;2022-09-13T04:08:02;11.25;;;7.50;;
65545;SDS011;52177;55.968;37.498;2022-09-13T04:08:34;9.02;;;7.03;;
65545;SDS011;52177;55.968;37.498;2022-09-13T04:09:05;9.98;;;7.75;;
65545;SDS011;52177;55.968;37.498;2022-09-13T04:09:35;9.20;;;7.25;;
65545;SDS011;52177;55.968;37.498;2022-09-13T04:10:06;7.75;;;7.05;;
65545;SDS011;52177;55.968;37.498;2022-09-13T04:10:37;9.07;;;7.78;;
65545;SDS011;52177;55.968;37.498;2022-09-13T04:11:07;8.65;;;7.70;;
65545;SDS011;52177;55.968;37.498;2022-09-13T04:11:38;9.90;;;7.20;;
65545;SDS011;52177;55.968;37.498;2022-09-13T04:12:09;9.23;;;7.53;;
65545;SDS011;52177;55.968;37.498;2022-09-13T04:12:40;9.73;;;7.57;;
65545;SDS011;52177;55.968;37.498;2022-09-13T04:13:10;7.20;;;6.45;;
65545;SDS011;52177;55.968;37.498;2022-09-13T04:13:40;8.48;;;7.25;;
65545;SDS011;52177;55.968;37.498;2022-09-13T04:14:11;7.88;;;6.63;;
65545;SDS011;52177;55.968;37.498;2022-09-13T04:14:41;10.13;;;7.00;;
65545;SDS011;52177;55.968;37.498;2022-09-13T04:15:15;7.70;;;6.90;;
65545;SDS011;52177;55.968;37.498;2022-09-13T04:15:45;7.50;;;6.30;;
65545;SDS011;52177;55.968;37.498;2022-09-13T04:16:16;7.85;;;6.00;;
65545;SDS011;52177;55.968;37.498;2022-09-13T04:16:46;7.18;;;6.13;;
65545;SDS011;52177;55.968;37.498;2022-09-13T04:17:16;6.70;;;6.05;;
65545;SDS011;52177;55.968;37.498;2022-09-13T04:17:47;8.57;;;6.82;;
65545;SDS011;52177;55.968;37.498;2022-09-13T04:18:17;6.93;;;5.78;;
65545;SDS011;52177;55.968;37.498;2022-09-13T04:18:47;6.68;;;5.65;;
65545;SDS011;52177;55.968;37.498;2022-09-13T04:19:18;7.00;;;5.80;;
65545;SDS011;52177;55.968;37.498;2022-09-13T04:19:48;6.53;;;5.85;;
65545;SDS011;52177;55.968;37.498;2022-09-13T04:20:19;9.73;;;5.57;;
65545;SDS011;52177;55.968;37.498;2022-09-13T04:20:53;7.03;;;6.22;;
65545;SDS011;52177;55.968;37.498;2022-09-13T04:21:24;6.13;;;5.63;;
65545;SDS011;52177;55.968;37.498;2022-09-13T04:21:54;8.70;;;6.00;;
65545;SDS011;52177;55.968;37.498;2022-09-13T04:22:25;6.88;;;5.78;;
65545;SDS011;52177;55.968;37.498;2022-09-13T04:22:55;6.70;;;6.05;;
65545;SDS011;52177;55.968;37.498;2022-09-13T04:23:29;6.47;;;5.72;;
65545;SDS011;52177;55.968;37.498;2022-09-13T04:24:00;7.72;;;6.22;;
65545;SDS011;52177;55.968;37.498;2022-09-13T04:24:30;8.05;;;6.43;;
65545;SDS011;52177;55.968;37.498;2022-09-13T04:25:00;7.90;;;5.90;;
65545;SDS011;52177;55.968;37.498;2022-09-13T04:25:31;7.85;;;6.47;;
65545;SDS011;52177;55.968;37.498;2022-09-13T04:26:02;7.00;;;6.28;;
65545;SDS011;52177;55.968;37.498;2022-09-13T04:26:34;8.75;;;6.18;;
65545;SDS011;52177;55.968;37.498;2022-09-13T04:27:05;6.28;;;5.78;;